createdAt,value
2018-01-05T00:00:45.891Z,7.23
2018-01-05T00:03:13.564Z,6.13
2018-01-05T00:05:41.253Z,16.13
2018-01-05T00:08:11.045Z,10.23
2018-01-05T00:10:43.032Z,4.60
2018-01-05T00:13:11.065Z,4.67
2018-01-05T00:18:17.617Z,13.93
2018-01-05T00:20:45.386Z,10.90
2018-01-05T00:23:17.646Z,12.83
2018-01-05T00:25:49.903Z,4.70
2018-01-05T00:28:17.619Z,6.73
2018-01-05T00:30:45.392Z,6.60
2018-01-05T00:33:15.637Z,7.07
2018-01-05T00:35:46.383Z,5.90
2018-01-05T00:38:14.284Z,11.47
2018-01-05T00:40:49.818Z,7.07
2018-01-05T00:43:18.481Z,10.93
2018-01-05T00:45:51.545Z,7.30
2018-01-05T00:48:21.685Z,5.27
2018-01-05T00:50:49.366Z,4.90
2018-01-05T00:53:17.068Z,9.93
2018-01-05T00:55:47.293Z,15.10
2018-01-05T00:58:16.683Z,6.10
2018-01-05T01:00:44.560Z,11.70
2018-01-05T01:03:15.025Z,4.63
2018-01-05T01:05:42.806Z,5.50
2018-01-05T01:08:13.933Z,5.47
2018-01-05T01:10:41.875Z,6.70
2018-01-05T01:13:10.430Z,4.40
2018-01-05T01:15:39.617Z,3.10
2018-01-05T01:18:07.303Z,2.00
2018-01-05T01:20:35.043Z,11.37
2018-01-05T01:23:03.327Z,6.20
2018-01-05T01:25:31.084Z,9.80
2018-01-05T01:27:58.868Z,15.57
2018-01-05T01:30:26.591Z,11.53
2018-01-05T01:32:54.636Z,14.80
2018-01-05T01:35:22.322Z,7.93
2018-01-05T01:37:51.684Z,5.53
2018-01-05T01:40:22.952Z,7.97
2018-01-05T01:42:57.470Z,7.07
2018-01-05T01:45:32.673Z,10.70
2018-01-05T01:48:00.374Z,5.53
2018-01-05T01:50:28.065Z,11.60
2018-01-05T01:52:55.763Z,12.47
2018-01-05T01:55:23.504Z,4.77
2018-01-05T01:57:51.246Z,7.90
2018-01-05T02:00:21.028Z,9.43
2018-01-05T02:02:50.555Z,11.40
2018-01-05T02:05:21.014Z,5.33
2018-01-05T02:07:48.678Z,9.97
2018-01-05T02:10:16.355Z,14.73
2018-01-05T02:12:44.631Z,5.00
2018-01-05T02:15:12.750Z,13.80
2018-01-05T02:17:41.132Z,8.87
2018-01-05T02:20:08.784Z,12.43
2018-01-05T02:22:38.402Z,3.37
2018-01-05T02:25:06.462Z,8.13
2018-01-05T02:27:34.085Z,5.40
2018-01-05T02:30:03.028Z,14.30
2018-01-05T02:32:32.406Z,8.83
2018-01-05T02:35:00.080Z,15.03
2018-01-05T02:37:28.240Z,10.23
2018-01-05T02:39:55.977Z,8.97
2018-01-05T02:42:25.752Z,9.93
2018-01-05T02:44:55.352Z,10.33
2018-01-05T02:47:23.114Z,12.83
2018-01-05T02:49:50.838Z,11.27
2018-01-05T02:52:18.736Z,14.90
2018-01-05T02:54:46.819Z,8.80
2018-01-05T02:57:15.094Z,4.20
2018-01-05T02:59:44.337Z,11.60
2018-01-05T03:02:12.165Z,17.30
2018-01-05T03:04:41.135Z,7.77
2018-01-05T03:07:08.911Z,9.70
2018-01-05T03:09:36.983Z,12.57
2018-01-05T03:12:05.976Z,12.67
2018-01-05T03:14:33.807Z,6.60
2018-01-05T03:17:03.865Z,8.77
2018-01-05T03:19:31.740Z,9.73
2018-01-05T03:21:59.828Z,14.87
2018-01-05T03:24:27.617Z,11.67
2018-01-05T03:26:55.287Z,12.47
2018-01-05T03:29:22.987Z,11.00
2018-01-05T03:31:50.909Z,9.17
2018-01-05T03:34:18.696Z,17.63
2018-01-05T03:36:46.465Z,12.33
2018-01-05T03:39:14.288Z,15.47
2018-01-05T03:41:42.126Z,15.57
2018-01-05T03:44:09.886Z,12.23
2018-01-05T03:46:41.704Z,8.50
2018-01-05T03:49:10.779Z,6.73
2018-01-05T03:51:38.508Z,11.13
2018-01-05T03:54:07.058Z,12.07
2018-01-05T03:56:35.878Z,18.57
2018-01-05T03:59:03.538Z,15.07
2018-01-05T04:01:32.530Z,13.63
2018-01-05T04:04:00.149Z,12.23
2018-01-05T04:06:27.923Z,11.40
2018-01-05T04:08:57.352Z,14.27
2018-01-05T04:11:25.247Z,10.37
2018-01-05T04:13:53.627Z,9.00
2018-01-05T04:16:21.391Z,13.93
2018-01-05T04:18:49.123Z,18.30
2018-01-05T04:21:16.845Z,25.93
2018-01-05T04:23:44.668Z,16.43
2018-01-05T04:26:12.361Z,19.13
2018-01-05T04:28:40.166Z,9.70
2018-01-05T04:31:07.853Z,17.10
2018-01-05T04:33:35.743Z,15.47
2018-01-05T04:36:03.432Z,6.57
2018-01-05T04:38:31.209Z,10.83
2018-01-05T04:40:58.900Z,14.80
2018-01-05T04:43:26.684Z,10.80
2018-01-05T04:45:55.161Z,14.17
2018-01-05T04:48:22.894Z,12.17
2018-01-05T04:50:51.156Z,20.73
2018-01-05T04:53:19.195Z,12.43
2018-01-05T04:55:47.126Z,14.90
2018-01-05T04:58:14.830Z,5.57
2018-01-05T05:00:42.740Z,12.93
2018-01-05T05:03:10.418Z,12.50
2018-01-05T05:05:38.513Z,12.17
2018-01-05T05:08:06.212Z,11.33
2018-01-05T05:10:33.952Z,12.17
2018-01-05T05:13:01.657Z,4.60
2018-01-05T05:15:29.376Z,8.43
2018-01-05T05:17:57.443Z,10.67
2018-01-05T05:20:25.080Z,10.43
2018-01-05T05:22:52.775Z,10.97
2018-01-05T05:25:20.547Z,8.83
2018-01-05T05:27:48.490Z,13.70
2018-01-05T05:30:16.152Z,11.60
2018-01-05T05:32:44.001Z,9.40
2018-01-05T05:35:11.690Z,7.03
2018-01-05T05:37:39.383Z,15.23
2018-01-05T05:40:07.162Z,15.70
2018-01-05T05:42:34.866Z,6.33
2018-01-05T05:45:02.849Z,3.20
2018-01-05T05:47:30.507Z,14.03
2018-01-05T05:49:58.574Z,7.47
2018-01-05T05:52:26.309Z,6.83
2018-01-05T05:54:54.001Z,11.53
2018-01-05T05:57:23.950Z,4.20
2018-01-05T05:59:51.693Z,12.37
2018-01-05T06:02:19.361Z,10.33
2018-01-05T06:04:48.530Z,6.07
2018-01-05T06:07:16.199Z,7.30
2018-01-05T06:09:43.974Z,5.57
2018-01-05T06:12:11.697Z,5.80
2018-01-05T06:14:39.382Z,3.93
2018-01-05T06:17:07.079Z,4.30
2018-01-05T06:19:34.744Z,2.30
2018-01-05T06:22:02.504Z,6.90
2018-01-05T06:24:30.582Z,6.43
2018-01-05T06:26:58.255Z,5.77
2018-01-05T06:29:30.826Z,8.83
2018-01-05T06:32:00.832Z,4.53
2018-01-05T06:34:29.705Z,3.83
2018-01-05T06:36:57.458Z,10.67
2018-01-05T06:39:26.214Z,4.50
2018-01-05T06:41:54.033Z,5.23
2018-01-05T06:44:24.412Z,3.97
2018-01-05T06:46:52.471Z,7.20
2018-01-05T06:49:20.696Z,5.23
2018-01-05T06:51:48.825Z,8.20
2018-01-05T06:57:12.114Z,9.53
2018-01-05T06:59:39.875Z,8.00
2018-01-05T07:02:08.897Z,5.50
2018-01-05T07:04:38.768Z,5.13
2018-01-05T07:07:06.778Z,11.20
2018-01-05T07:09:34.795Z,5.20
2018-01-05T07:12:02.483Z,5.50
2018-01-05T07:14:30.225Z,5.37
2018-01-05T07:16:59.053Z,7.13
2018-01-05T07:19:28.616Z,7.73
2018-01-05T07:21:56.384Z,5.17
2018-01-05T07:24:25.244Z,5.40
2018-01-05T07:26:55.396Z,4.77
2018-01-05T07:29:24.206Z,9.87
2018-01-05T07:31:51.968Z,6.80
2018-01-05T07:34:19.720Z,4.80
2018-01-05T07:36:47.414Z,4.80
2018-01-05T07:39:15.123Z,3.30
2018-01-05T07:41:42.862Z,7.67
2018-01-05T07:44:11.364Z,5.03
2018-01-05T07:46:40.225Z,4.40
2018-01-05T07:49:09.188Z,9.83
2018-01-05T07:51:37.143Z,10.80
2018-01-05T07:54:05.995Z,3.63
2018-01-05T07:56:35.013Z,4.47
2018-01-05T07:59:02.766Z,6.43
2018-01-05T08:01:30.516Z,5.60
2018-01-05T08:04:00.692Z,2.43
2018-01-05T08:06:30.930Z,3.80
2018-01-05T08:08:58.834Z,11.07
2018-01-05T08:11:28.066Z,4.77
2018-01-05T08:13:58.099Z,5.13
2018-01-05T08:16:26.583Z,6.33
2018-01-05T08:18:55.812Z,5.23
2018-01-05T08:21:23.621Z,5.20
2018-01-05T08:23:51.729Z,12.50
2018-01-05T08:26:19.867Z,4.80
2018-01-05T08:28:49.465Z,2.63
2018-01-05T08:31:17.404Z,3.23
2018-01-05T08:33:46.278Z,8.43
2018-01-05T08:36:14.099Z,6.93
2018-01-05T08:38:43.340Z,9.63
2018-01-05T08:41:11.902Z,8.70
2018-01-05T08:43:41.144Z,6.13
2018-01-05T08:46:10.466Z,5.27
2018-01-05T08:48:39.492Z,3.10
2018-01-05T08:51:07.250Z,5.30
2018-01-05T08:53:35.759Z,5.67
2018-01-05T08:56:03.594Z,1.93
2018-01-05T08:58:32.204Z,11.03
2018-01-05T09:01:00.785Z,8.77
2018-01-05T09:03:28.738Z,11.03
2018-01-05T09:05:57.694Z,10.17
2018-01-05T09:08:26.685Z,3.87
2018-01-05T09:10:54.576Z,6.93
2018-01-05T09:13:22.366Z,2.13
2018-01-05T09:15:50.982Z,5.43
2018-01-05T09:18:20.047Z,2.70
2018-01-05T09:20:47.841Z,2.07
2018-01-05T09:23:15.606Z,12.50
2018-01-05T09:25:43.347Z,2.93
2018-01-05T09:28:12.379Z,8.23
2018-01-05T09:30:41.004Z,2.40
2018-01-05T09:33:08.963Z,13.63
2018-01-05T09:35:36.727Z,4.43
2018-01-05T09:38:04.344Z,5.30
2018-01-05T09:40:32.053Z,6.17
2018-01-05T09:42:59.744Z,17.07
2018-01-05T09:45:27.783Z,10.03
2018-01-05T09:47:55.513Z,10.60
2018-01-05T09:50:23.286Z,2.70
2018-01-05T09:52:51.079Z,5.33
2018-01-05T09:55:19.083Z,6.00
2018-01-05T09:57:47.123Z,8.90
2018-01-05T10:00:15.190Z,6.47
2018-01-05T10:02:42.988Z,5.27
2018-01-05T10:05:10.692Z,4.30
2018-01-05T10:07:38.403Z,6.30
2018-01-05T10:10:06.437Z,10.17
2018-01-05T10:12:34.131Z,9.90
2018-01-05T10:15:01.769Z,9.00
2018-01-05T10:17:29.750Z,4.50
2018-01-05T10:19:57.459Z,5.87
2018-01-05T10:22:25.156Z,10.33
2018-01-05T10:24:52.839Z,1.87
2018-01-05T10:27:20.592Z,8.33
2018-01-05T10:32:22.603Z,4.93
2018-01-05T10:37:52.461Z,8.20
2018-01-05T10:40:20.910Z,7.60
2018-01-05T10:42:48.984Z,3.70
2018-01-05T10:45:16.756Z,7.67
2018-01-05T10:47:44.509Z,5.93
2018-01-05T10:50:12.194Z,10.20
2018-01-05T10:52:40.133Z,22.43
2018-01-05T10:55:07.823Z,7.47
2018-01-05T10:57:42.681Z,8.60
2018-01-05T11:00:10.447Z,15.93
2018-01-05T11:02:38.123Z,5.73
2018-01-05T11:05:06.122Z,7.97
2018-01-05T11:07:33.877Z,26.60
2018-01-05T11:10:01.665Z,9.23
2018-01-05T11:12:29.440Z,12.40
2018-01-05T11:14:57.120Z,8.93
2018-01-05T11:17:24.814Z,8.63
2018-01-05T11:19:52.542Z,6.30
2018-01-05T11:22:20.670Z,15.20
2018-01-05T11:24:48.368Z,15.73
2018-01-05T11:27:16.254Z,5.87
2018-01-05T11:29:44.217Z,4.10
2018-01-05T11:32:11.882Z,10.90
2018-01-05T11:34:40.039Z,9.67
2018-01-05T11:37:07.766Z,8.30
2018-01-05T11:39:35.581Z,16.80
2018-01-05T11:42:03.303Z,6.83
2018-01-05T11:44:30.942Z,8.83
2018-01-05T11:47:00.624Z,8.10
2018-01-05T11:49:28.569Z,3.40
2018-01-05T11:51:56.385Z,12.47
2018-01-05T11:54:25.138Z,15.47
2018-01-05T11:56:53.161Z,9.07
2018-01-05T11:59:20.901Z,13.10
2018-01-05T12:01:48.561Z,9.30
2018-01-05T12:04:16.688Z,7.67
2018-01-05T12:06:44.391Z,8.33
2018-01-05T12:09:12.058Z,8.17
2018-01-05T12:11:40.179Z,10.57
2018-01-05T12:14:07.810Z,8.80
2018-01-05T12:16:36.832Z,16.57
2018-01-05T12:21:39.903Z,5.33
2018-01-05T12:24:07.595Z,8.67
2018-01-05T12:26:35.322Z,13.13
2018-01-05T12:29:02.987Z,12.73
2018-01-05T12:31:30.696Z,9.90
2018-01-05T12:33:58.376Z,16.10
2018-01-05T12:36:26.083Z,12.30
2018-01-05T12:38:53.731Z,9.77
2018-01-05T12:41:21.849Z,12.30
2018-01-05T12:43:49.924Z,8.23
2018-01-05T12:46:18.903Z,9.47
2018-01-05T12:48:46.701Z,12.77
2018-01-05T12:51:15.633Z,13.33
2018-01-05T12:53:44.237Z,11.87
2018-01-05T12:56:12.330Z,12.17
2018-01-05T12:58:40.043Z,15.07
2018-01-05T13:01:07.726Z,15.80
2018-01-05T13:03:35.615Z,8.07
2018-01-05T13:06:03.292Z,15.90
2018-01-05T13:08:30.908Z,12.20
2018-01-05T13:10:58.520Z,10.20
2018-01-05T13:13:26.090Z,19.77
2018-01-05T13:15:53.844Z,23.50
2018-01-05T13:18:21.444Z,7.30
2018-01-05T13:20:49.111Z,10.63
2018-01-05T13:23:16.671Z,15.00
2018-01-05T13:25:45.791Z,16.43
2018-01-05T13:28:13.784Z,19.33
2018-01-05T13:30:41.418Z,12.67
2018-01-05T13:33:09.005Z,17.30
2018-01-05T13:35:36.618Z,11.90
2018-01-05T13:38:04.288Z,11.47
2018-01-05T13:40:31.889Z,16.10
2018-01-05T13:42:59.847Z,12.27
2018-01-05T13:45:27.458Z,17.90
2018-01-05T13:47:55.029Z,18.43
2018-01-05T13:50:22.874Z,17.60
2018-01-05T13:52:50.799Z,15.63
2018-01-05T13:55:18.379Z,14.20
2018-01-05T13:57:46.026Z,18.07
2018-01-05T14:00:13.626Z,22.00
2018-01-05T14:02:41.283Z,21.43
2018-01-05T14:05:11.958Z,17.17
2018-01-05T14:07:40.004Z,20.73
2018-01-05T14:10:07.603Z,17.73
2018-01-05T14:12:35.474Z,14.83
2018-01-05T14:15:03.295Z,20.70
2018-01-05T14:17:30.863Z,17.07
2018-01-05T14:19:58.517Z,22.80
2018-01-05T14:22:26.159Z,22.73
2018-01-05T14:24:54.108Z,21.53
2018-01-05T14:27:26.057Z,18.47
2018-01-05T14:29:54.150Z,22.13
2018-01-05T14:32:21.743Z,34.33
2018-01-05T14:34:49.424Z,20.33
2018-01-05T14:37:17.343Z,18.60
2018-01-05T14:39:45.031Z,22.37
2018-01-05T14:42:12.687Z,21.80
2018-01-05T14:44:40.397Z,16.37
2018-01-05T14:47:07.967Z,23.77
2018-01-05T14:49:35.669Z,17.80
2018-01-05T14:52:03.293Z,20.00
2018-01-05T14:54:30.903Z,24.43
2018-01-05T14:56:58.942Z,17.50
2018-01-05T14:59:26.513Z,18.50
2018-01-05T15:01:54.095Z,22.87
2018-01-05T15:04:21.840Z,24.33
2018-01-05T15:06:49.501Z,21.67
2018-01-05T15:09:17.123Z,21.47
2018-01-05T15:11:44.692Z,20.23
2018-01-05T15:14:12.377Z,27.20
2018-01-05T15:16:41.204Z,23.00
2018-01-05T15:19:08.834Z,19.20
2018-01-05T15:21:36.485Z,20.47
2018-01-05T15:24:04.108Z,18.23
2018-01-05T15:26:32.035Z,25.00
2018-01-05T15:28:59.753Z,21.13
2018-01-05T15:31:27.637Z,24.20
2018-01-05T15:33:55.259Z,19.60
2018-01-05T15:36:22.920Z,19.50
2018-01-05T15:38:50.562Z,14.50
2018-01-05T15:41:18.183Z,26.23
2018-01-05T15:43:45.967Z,19.87
2018-01-05T15:46:13.938Z,19.00
2018-01-05T15:48:41.522Z,21.27
2018-01-05T15:51:09.204Z,23.00
2018-01-05T15:53:36.958Z,17.70
2018-01-05T15:56:04.608Z,20.27
2018-01-05T15:58:32.314Z,21.90
2018-01-05T16:01:00.415Z,20.23
2018-01-05T16:03:28.040Z,30.00
2018-01-05T16:05:55.669Z,18.90
2018-01-05T16:08:23.571Z,18.83
2018-01-05T16:10:51.795Z,29.63
2018-01-05T16:13:19.598Z,19.67
2018-01-05T16:15:47.500Z,17.10
2018-01-05T16:18:15.159Z,23.63
2018-01-05T16:20:42.887Z,31.03
2018-01-05T16:23:10.519Z,24.40
2018-01-05T16:25:38.364Z,33.27
2018-01-05T16:28:06.020Z,39.03
2018-01-05T16:30:33.630Z,30.20
2018-01-05T16:33:01.268Z,27.53
2018-01-05T16:35:28.851Z,23.17
2018-01-05T16:37:56.467Z,24.40
2018-01-05T16:40:24.122Z,27.20
2018-01-05T16:42:51.926Z,30.30
2018-01-05T16:45:19.863Z,32.90
2018-01-05T16:47:47.827Z,41.50
2018-01-05T16:50:15.657Z,32.03
2018-01-05T16:52:43.295Z,31.77
2018-01-05T16:55:10.971Z,27.43
2018-01-05T16:57:38.562Z,42.90
2018-01-05T17:00:06.193Z,33.17
2018-01-05T17:02:33.846Z,31.27
2018-01-05T17:05:01.429Z,28.43
2018-01-05T17:07:29.330Z,33.83
2018-01-05T17:09:56.972Z,31.67
2018-01-05T17:12:24.870Z,32.77
2018-01-05T17:14:52.544Z,27.87
2018-01-05T17:17:20.503Z,31.80
2018-01-05T17:19:48.086Z,42.13
2018-01-05T17:22:15.994Z,25.40
2018-01-05T17:24:43.667Z,26.13
2018-01-05T17:27:12.173Z,37.87
2018-01-05T17:29:39.798Z,32.03
2018-01-05T17:32:09.453Z,26.77
2018-01-05T17:34:37.515Z,33.77
2018-01-05T17:37:05.113Z,29.40
2018-01-05T17:39:32.816Z,21.33
2018-01-05T17:42:00.512Z,19.90
2018-01-05T17:44:28.186Z,34.20
2018-01-05T17:46:55.891Z,33.77
2018-01-05T17:49:23.543Z,31.73
2018-01-05T17:51:51.211Z,37.30
2018-01-05T17:54:19.760Z,48.17
2018-01-05T17:56:47.381Z,47.07
2018-01-05T17:59:15.045Z,32.13
2018-01-05T18:01:43.922Z,18.20
2018-01-05T18:04:14.446Z,54.57
2018-01-05T18:06:44.395Z,42.70
2018-01-05T18:09:24.617Z,38.03
2018-01-05T18:11:52.376Z,38.30
2018-01-05T18:14:20.277Z,20.33
2018-01-05T18:16:47.917Z,24.23
2018-01-05T18:19:15.502Z,25.00
2018-01-05T18:21:44.311Z,26.17
2018-01-05T18:24:11.955Z,17.47
2018-01-05T18:26:39.619Z,37.20
2018-01-05T18:29:07.599Z,21.57
2018-01-05T18:31:36.632Z,18.93
2018-01-05T18:34:04.399Z,24.93
2018-01-05T18:36:33.132Z,15.37
2018-01-05T18:39:00.988Z,22.40
2018-01-05T18:41:29.279Z,24.30
2018-01-05T18:43:57.352Z,28.17
2018-01-05T18:46:24.970Z,24.60
2018-01-05T18:48:52.794Z,29.37
2018-01-05T18:51:20.505Z,24.57
2018-01-05T18:53:48.131Z,16.53
2018-01-05T18:56:15.792Z,19.93
2018-01-05T18:58:43.733Z,21.20
2018-01-05T19:01:11.399Z,17.67
2018-01-05T19:03:39.249Z,20.87
2018-01-05T19:06:07.229Z,17.67
2018-01-05T19:08:34.837Z,21.17
2018-01-05T19:11:02.755Z,26.53
2018-01-05T19:13:30.404Z,16.17
2018-01-05T19:15:58.020Z,18.00
2018-01-05T19:18:25.668Z,9.93
2018-01-05T19:20:53.222Z,32.67
2018-01-05T19:23:20.968Z,13.53
2018-01-05T19:25:48.838Z,18.03
2018-01-05T19:30:54.828Z,29.00
2018-01-05T19:33:22.614Z,18.67
2018-01-05T19:35:50.266Z,13.77
2018-01-05T19:38:17.907Z,21.63
2018-01-05T19:40:46.996Z,23.03
2018-01-05T19:43:14.688Z,18.57
2018-01-05T19:45:42.550Z,25.30
2018-01-05T19:48:13.950Z,27.10
2018-01-05T19:50:42.069Z,32.43
2018-01-05T19:53:12.427Z,43.63
2018-01-05T19:55:41.766Z,22.33
2018-01-05T19:58:09.622Z,32.60
2018-01-05T20:00:39.534Z,27.60
2018-01-05T20:03:07.662Z,28.13
2018-01-05T20:05:37.209Z,24.90
2018-01-05T20:08:08.129Z,28.47
2018-01-05T20:10:38.439Z,23.10
2018-01-05T20:13:07.732Z,25.03
2018-01-05T20:15:36.482Z,19.53
2018-01-05T20:18:04.139Z,26.10
2018-01-05T20:20:31.988Z,27.90
2018-01-05T20:22:59.732Z,30.93
2018-01-05T20:25:29.057Z,27.93
2018-01-05T20:27:56.707Z,34.37
2018-01-05T20:30:27.413Z,32.83
2018-01-05T20:32:55.144Z,32.90
2018-01-05T20:35:26.168Z,34.40
2018-01-05T20:37:55.990Z,44.63
2018-01-05T20:40:23.778Z,36.00
2018-01-05T20:42:53.302Z,28.17
2018-01-05T20:45:21.382Z,47.37
2018-01-05T20:47:48.999Z,34.57
2018-01-05T20:50:19.102Z,38.27
2018-01-05T20:52:46.790Z,31.23
2018-01-05T20:55:14.681Z,33.93
2018-01-05T20:57:42.305Z,40.37
2018-01-05T21:00:10.278Z,32.03
2018-01-05T21:02:38.958Z,39.67
2018-01-05T21:05:06.724Z,27.27
2018-01-05T21:07:34.474Z,42.20
2018-01-05T21:10:02.316Z,30.23
2018-01-05T21:12:29.959Z,25.37
2018-01-05T21:14:58.410Z,42.17
2018-01-05T21:17:26.078Z,40.43
2018-01-05T21:19:53.713Z,31.00
2018-01-05T21:22:21.303Z,31.37
2018-01-05T21:24:49.336Z,27.17
2018-01-05T21:27:17.683Z,17.77
2018-01-05T21:29:49.097Z,29.77
2018-01-05T21:32:20.333Z,28.37
2018-01-05T21:34:47.931Z,26.13
2018-01-05T21:37:27.890Z,21.00
2018-01-05T21:39:56.992Z,22.43
2018-01-05T21:42:24.610Z,20.23
2018-01-05T21:44:52.341Z,23.60
2018-01-05T21:47:20.096Z,22.43
2018-01-05T21:49:48.212Z,13.77
2018-01-05T21:52:15.844Z,18.63
2018-01-05T21:54:43.558Z,12.00
2018-01-05T21:57:11.255Z,12.47
2018-01-05T21:59:39.084Z,15.63
2018-01-05T22:02:06.874Z,23.23
2018-01-05T22:04:34.693Z,15.33
2018-01-05T22:07:02.766Z,12.47
2018-01-05T22:09:30.722Z,21.47
2018-01-05T22:11:58.312Z,10.77
2018-01-05T22:14:26.297Z,11.93
2018-01-05T22:16:54.048Z,20.53
2018-01-05T22:19:22.699Z,21.80
2018-01-05T22:21:50.439Z,20.47
2018-01-05T22:24:19.411Z,19.07
2018-01-05T22:26:47.316Z,15.27
2018-01-05T22:29:15.165Z,22.97
2018-01-05T22:31:42.915Z,19.20
2018-01-05T22:34:11.149Z,19.30
2018-01-05T22:36:39.333Z,22.50
2018-01-05T22:39:07.268Z,23.60
2018-01-05T22:41:35.028Z,25.43
2018-01-05T22:44:02.774Z,26.60
2018-01-05T22:46:30.444Z,26.17
2018-01-05T22:48:58.275Z,28.20
2018-01-05T22:51:26.108Z,20.93
2018-01-05T22:53:54.038Z,28.90
2018-01-05T22:56:22.018Z,26.60
2018-01-05T22:58:49.961Z,26.33
2018-01-05T23:01:19.020Z,24.40
2018-01-05T23:03:46.896Z,24.50
2018-01-05T23:06:14.817Z,27.83
2018-01-05T23:08:42.630Z,31.30
2018-01-05T23:11:10.559Z,27.30
2018-01-05T23:13:38.205Z,26.23
2018-01-05T23:16:05.966Z,25.40
2018-01-05T23:18:33.807Z,25.97
2018-01-05T23:21:01.386Z,43.00
2018-01-05T23:23:29.153Z,21.97
2018-01-05T23:25:56.825Z,37.17
2018-01-05T23:28:24.621Z,36.40
2018-01-05T23:30:52.394Z,29.97
2018-01-05T23:33:20.737Z,30.37
2018-01-05T23:35:48.397Z,36.50
2018-01-05T23:38:16.306Z,29.33
2018-01-05T23:40:44.017Z,29.60
2018-01-05T23:43:11.857Z,27.33
2018-01-05T23:45:39.726Z,31.53
2018-01-05T23:48:07.503Z,41.33
2018-01-05T23:50:35.133Z,26.97
2018-01-05T23:53:02.785Z,31.73
2018-01-05T23:55:32.412Z,30.40
2018-01-05T23:58:00.142Z,31.20
